sensor_id;sensor_type;location;lat;lon;timestamp;pressure;altitude;pressure_sealevel;temperature;humidity
27425;BME280;15244;49.088;11.886;2023-04-06T00:03:36;96033.06;;;6.12;33.56
27425;BME280;15244;49.088;11.886;2023-04-06T00:08:51;96027.13;;;6.06;33.49
27425;BME280;15244;49.088;11.886;2023-04-06T00:14:20;96026.59;;;6.01;33.95
27425;BME280;15244;49.088;11.886;2023-04-06T00:19:35;96017.25;;;5.98;34.06
27425;BME280;15244;49.088;11.886;2023-04-06T00:24:57;96014.44;;;5.95;34.07
27425;BME280;15244;49.088;11.886;2023-04-06T00:30:19;96021.28;;;5.92;33.99
27425;BME280;15244;49.088;11.886;2023-04-06T00:35:34;96018.84;;;5.87;33.98
27425;BME280;15244;49.088;11.886;2023-04-06T00:41:03;96015.72;;;5.85;34.30
27425;BME280;15244;49.088;11.886;2023-04-06T00:46:32;96019.44;;;5.80;34.18
27425;BME280;15244;49.088;11.886;2023-04-06T00:51:47;96022.84;;;5.77;34.05
27425;BME280;15244;49.088;11.886;2023-04-06T00:57:17;96013.50;;;5.75;34.61
27425;BME280;15244;49.088;11.886;2023-04-06T01:02:32;96018.91;;;5.75;34.35
27425;BME280;15244;49.088;11.886;2023-04-06T01:08:04;96011.59;;;5.75;34.42
27425;BME280;15244;49.088;11.886;2023-04-06T01:13:20;96004.59;;;5.74;34.22
27425;BME280;15244;49.088;11.886;2023-04-06T01:18:56;96005.72;;;5.73;34.32
27425;BME280;15244;49.088;11.886;2023-04-06T01:24:13;95997.94;;;5.72;34.54
27425;BME280;15244;49.088;11.886;2023-04-06T01:29:45;96002.13;;;5.69;34.82
27425;BME280;15244;49.088;11.886;2023-04-06T01:35:27;96002.03;;;5.65;34.68
27425;BME280;15244;49.088;11.886;2023-04-06T01:40:59;95997.31;;;5.62;34.86
27425;BME280;15244;49.088;11.886;2023-04-06T01:46:26;96002.63;;;5.59;34.80
27425;BME280;15244;49.088;11.886;2023-04-06T01:51:59;96000.94;;;5.54;35.00
27425;BME280;15244;49.088;11.886;2023-04-06T01:57:18;96000.84;;;5.51;35.25
27425;BME280;15244;49.088;11.886;2023-04-06T02:02:57;95992.75;;;5.51;34.91
27425;BME280;15244;49.088;11.886;2023-04-06T02:08:27;95989.13;;;5.47;35.44
27425;BME280;15244;49.088;11.886;2023-04-06T02:13:42;95995.69;;;5.46;35.00
27425;BME280;15244;49.088;11.886;2023-04-06T02:19:14;95994.13;;;5.45;35.01
27425;BME280;15244;49.088;11.886;2023-04-06T02:24:29;95992.53;;;5.43;34.76
27425;BME280;15244;49.088;11.886;2023-04-06T02:29:58;95985.19;;;5.44;35.12
27425;BME280;15244;49.088;11.886;2023-04-06T02:35:13;95986.34;;;5.43;35.29
27425;BME280;15244;49.088;11.886;2023-04-06T02:40:43;95987.13;;;5.43;34.95
27425;BME280;15244;49.088;11.886;2023-04-06T02:46:00;95982.06;;;5.42;35.17
27425;BME280;15244;49.088;11.886;2023-04-06T02:51:29;95988.59;;;5.41;35.25
27425;BME280;15244;49.088;11.886;2023-04-06T02:56:55;95985.13;;;5.40;35.68
27425;BME280;15244;49.088;11.886;2023-04-06T03:02:26;95978.94;;;5.40;35.57
27425;BME280;15244;49.088;11.886;2023-04-06T03:07:45;95971.94;;;5.39;35.21
27425;BME280;15244;49.088;11.886;2023-04-06T03:13:22;95981.97;;;5.38;34.96
27425;BME280;15244;49.088;11.886;2023-04-06T03:18:37;95983.88;;;5.38;34.91
27425;BME280;15244;49.088;11.886;2023-04-06T03:24:09;95989.97;;;5.35;34.84
27425;BME280;15244;49.088;11.886;2023-04-06T03:29:24;95991.09;;;5.34;35.04
27425;BME280;15244;49.088;11.886;2023-04-06T03:34:57;95993.38;;;5.32;35.55
27425;BME280;15244;49.088;11.886;2023-04-06T03:40:12;95989.44;;;5.29;35.38
27425;BME280;15244;49.088;11.886;2023-04-06T03:45:41;96002.97;;;5.29;35.41
27425;BME280;15244;49.088;11.886;2023-04-06T03:50:57;96000.13;;;5.26;35.69
27425;BME280;15244;49.088;11.886;2023-04-06T03:56:25;96008.94;;;5.22;35.66
27425;BME280;15244;49.088;11.886;2023-04-06T04:01:47;96013.09;;;5.20;35.56
27425;BME280;15244;49.088;11.886;2023-04-06T04:07:16;96020.31;;;5.16;35.83
27425;BME280;15244;49.088;11.886;2023-04-06T04:12:31;96011.34;;;5.12;35.69
27425;BME280;15244;49.088;11.886;2023-04-06T04:18:00;96013.91;;;5.08;35.98
27425;BME280;15244;49.088;11.886;2023-04-06T04:23:15;96021.91;;;5.05;36.28
27425;BME280;15244;49.088;11.886;2023-04-06T04:28:44;96023.72;;;5.00;36.17
27425;BME280;15244;49.088;11.886;2023-04-06T04:33:59;96026.78;;;4.99;36.45
27425;BME280;15244;49.088;11.886;2023-04-06T04:39:28;96029.34;;;4.95;36.42
27425;BME280;15244;49.088;11.886;2023-04-06T04:44:43;96025.78;;;4.91;36.54
27425;BME280;15244;49.088;11.886;2023-04-06T04:50:18;96030.28;;;4.87;36.86
27425;BME280;15244;49.088;11.886;2023-04-06T04:55:33;96025.19;;;4.86;36.80
27425;BME280;15244;49.088;11.886;2023-04-06T05:01:03;96030.50;;;4.82;36.54
27425;BME280;15244;49.088;11.886;2023-04-06T05:06:19;96030.41;;;4.78;36.90
27425;BME280;15244;49.088;11.886;2023-04-06T05:11:48;96032.28;;;4.78;36.73
27425;BME280;15244;49.088;11.886;2023-04-06T05:17:08;96028.34;;;4.75;37.11
27425;BME280;15244;49.088;11.886;2023-04-06T05:22:37;96033.28;;;4.73;36.98
27425;BME280;15244;49.088;11.886;2023-04-06T05:27:52;96032.97;;;4.75;37.21
27425;BME280;15244;49.088;11.886;2023-04-06T05:33:21;96037.22;;;4.76;37.81
27425;BME280;15244;49.088;11.886;2023-04-06T05:38:40;96045.00;;;4.77;37.46
27425;BME280;15244;49.088;11.886;2023-04-06T05:44:20;96035.13;;;4.82;37.69
27425;BME280;15244;49.088;11.886;2023-04-06T05:49:44;96034.44;;;4.85;37.61
27425;BME280;15244;49.088;11.886;2023-04-06T05:55:16;96041.16;;;4.91;37.98
27425;BME280;15244;49.088;11.886;2023-04-06T06:00:45;96046.03;;;4.97;38.04
27425;BME280;15244;49.088;11.886;2023-04-06T06:06:21;96040.84;;;5.05;37.60
27425;BME280;15244;49.088;11.886;2023-04-06T06:11:45;96049.03;;;5.08;38.10
27425;BME280;15244;49.088;11.886;2023-04-06T06:17:15;96050.81;;;5.16;37.94
27425;BME280;15244;49.088;11.886;2023-04-06T06:22:30;96051.41;;;5.22;38.04
27425;BME280;15244;49.088;11.886;2023-04-06T06:28:02;96050.47;;;5.30;37.68
27425;BME280;15244;49.088;11.886;2023-04-06T06:33:17;96057.34;;;5.40;38.21
27425;BME280;15244;49.088;11.886;2023-04-06T06:38:46;96066.91;;;5.50;37.71
27425;BME280;15244;49.088;11.886;2023-04-06T06:44:01;96067.88;;;5.57;37.50
27425;BME280;15244;49.088;11.886;2023-04-06T06:49:31;96065.81;;;5.67;37.62
27425;BME280;15244;49.088;11.886;2023-04-06T06:54:46;96068.41;;;5.75;37.57
27425;BME280;15244;49.088;11.886;2023-04-06T07:00:15;96069.47;;;5.86;37.63
27425;BME280;15244;49.088;11.886;2023-04-06T07:05:31;96083.00;;;5.99;37.38
27425;BME280;15244;49.088;11.886;2023-04-06T07:10:59;96075.50;;;6.08;37.58
27425;BME280;15244;49.088;11.886;2023-04-06T07:16:14;96069.22;;;6.20;38.13
27425;BME280;15244;49.088;11.886;2023-04-06T07:21:43;96072.66;;;6.33;37.61
27425;BME280;15244;49.088;11.886;2023-04-06T07:26:59;96068.66;;;6.42;37.78
27425;BME280;15244;49.088;11.886;2023-04-06T07:32:28;96073.66;;;6.56;37.54
27425;BME280;15244;49.088;11.886;2023-04-06T07:37:43;96082.06;;;6.67;37.22
27425;BME280;15244;49.088;11.886;2023-04-06T07:43:13;96089.06;;;6.84;37.45
27425;BME280;15244;49.088;11.886;2023-04-06T07:48:29;96080.47;;;6.98;37.17
27425;BME280;15244;49.088;11.886;2023-04-06T07:53:59;96076.19;;;7.12;37.12
27425;BME280;15244;49.088;11.886;2023-04-06T07:59:14;96066.00;;;7.25;36.98
27425;BME280;15244;49.088;11.886;2023-04-06T08:04:43;96070.16;;;7.38;36.65
27425;BME280;15244;49.088;11.886;2023-04-06T08:09:58;96069.34;;;7.54;36.62
27425;BME280;15244;49.088;11.886;2023-04-06T08:15:27;96068.94;;;7.71;36.69
27425;BME280;15244;49.088;11.886;2023-04-06T08:20:42;96068.06;;;7.87;36.23
27425;BME280;15244;49.088;11.886;2023-04-06T08:26:11;96077.28;;;8.01;36.20
27425;BME280;15244;49.088;11.886;2023-04-06T08:31:26;96082.94;;;8.12;35.85
27425;BME280;15244;49.088;11.886;2023-04-06T08:36:55;96069.97;;;8.25;35.48
27425;BME280;15244;49.088;11.886;2023-04-06T08:42:12;96068.25;;;8.36;35.09
27425;BME280;15244;49.088;11.886;2023-04-06T08:47:45;96068.47;;;8.47;35.25
27425;BME280;15244;49.088;11.886;2023-04-06T08:53:01;96067.16;;;8.60;35.07
27425;BME280;15244;49.088;11.886;2023-04-06T08:58:37;96073.56;;;8.72;35.12
27425;BME280;15244;49.088;11.886;2023-04-06T09:04:00;96066.44;;;8.86;34.81
27425;BME280;15244;49.088;11.886;2023-04-06T09:09:32;96067.81;;;9.00;34.47
27425;BME280;15244;49.088;11.886;2023-04-06T09:14:47;96064.88;;;9.12;34.38
27425;BME280;15244;49.088;11.886;2023-04-06T09:20:23;96062.44;;;9.30;34.27
27425;BME280;15244;49.088;11.886;2023-04-06T09:25:40;96063.44;;;9.45;34.44
27425;BME280;15244;49.088;11.886;2023-04-06T09:31:09;96059.69;;;9.57;33.93
27425;BME280;15244;49.088;11.886;2023-04-06T09:36:34;96054.78;;;9.69;33.69
27425;BME280;15244;49.088;11.886;2023-04-06T09:42:04;96056.94;;;9.87;33.39
27425;BME280;15244;49.088;11.886;2023-04-06T09:47:19;96056.78;;;10.03;33.24
27425;BME280;15244;49.088;11.886;2023-04-06T09:52:50;96049.19;;;10.23;32.90
27425;BME280;15244;49.088;11.886;2023-04-06T09:58:13;96051.41;;;10.44;32.73
27425;BME280;15244;49.088;11.886;2023-04-06T10:03:50;96052.34;;;10.62;32.25
27425;BME280;15244;49.088;11.886;2023-04-06T10:09:25;96042.72;;;10.75;32.14
27425;BME280;15244;49.088;11.886;2023-04-06T10:14:40;96028.81;;;10.91;31.78
27425;BME280;15244;49.088;11.886;2023-04-06T10:20:15;96019.97;;;11.01;31.69
27425;BME280;15244;49.088;11.886;2023-04-06T10:25:33;96028.63;;;11.14;31.68
27425;BME280;15244;49.088;11.886;2023-04-06T10:31:05;96017.81;;;11.32;31.54
27425;BME280;15244;49.088;11.886;2023-04-06T10:36:27;96012.81;;;11.48;31.10
27425;BME280;15244;49.088;11.886;2023-04-06T10:42:06;96009.00;;;11.60;30.87
27425;BME280;15244;49.088;11.886;2023-04-06T10:47:21;96003.19;;;11.73;30.87
27425;BME280;15244;49.088;11.886;2023-04-06T10:53:02;96000.94;;;11.89;30.53
27425;BME280;15244;49.088;11.886;2023-04-06T10:58:17;96003.31;;;12.01;30.91
27425;BME280;15244;49.088;11.886;2023-04-06T11:03:47;95991.63;;;12.04;29.89
27425;BME280;15244;49.088;11.886;2023-04-06T11:09:29;95990.84;;;12.14;30.05
27425;BME280;15244;49.088;11.886;2023-04-06T11:14:56;95997.09;;;12.15;30.13
27425;BME280;15244;49.088;11.886;2023-04-06T11:20:28;95970.97;;;12.25;29.86
27425;BME280;15244;49.088;11.886;2023-04-06T11:25:50;95969.81;;;12.40;29.75
27425;BME280;15244;49.088;11.886;2023-04-06T11:31:19;95971.00;;;12.53;29.39
27425;BME280;15244;49.088;11.886;2023-04-06T11:36:41;95964.34;;;12.58;29.15
27425;BME280;15244;49.088;11.886;2023-04-06T11:42:10;95963.97;;;12.52;28.65
27425;BME280;15244;49.088;11.886;2023-04-06T11:47:29;95955.38;;;12.54;28.75
27425;BME280;15244;49.088;11.886;2023-04-06T11:52:59;95954.59;;;12.68;28.96
27425;BME280;15244;49.088;11.886;2023-04-06T11:58:15;95939.75;;;12.79;29.26
27425;BME280;15244;49.088;11.886;2023-04-06T12:03:44;95937.75;;;12.91;28.89
27425;BME280;15244;49.088;11.886;2023-04-06T12:08:59;95933.47;;;12.97;28.72
27425;BME280;15244;49.088;11.886;2023-04-06T12:14:28;95920.53;;;13.05;28.62
27425;BME280;15244;49.088;11.886;2023-04-06T12:19:45;95927.53;;;13.16;28.58
27425;BME280;15244;49.088;11.886;2023-04-06T12:25:20;95905.63;;;13.31;28.26
27425;BME280;15244;49.088;11.886;2023-04-06T12:30:35;95916.50;;;13.49;28.30
27425;BME280;15244;49.088;11.886;2023-04-06T12:36:04;95905.50;;;13.59;27.69
27425;BME280;15244;49.088;11.886;2023-04-06T12:41:19;95905.13;;;13.61;27.71
27425;BME280;15244;49.088;11.886;2023-04-06T12:46:48;95904.72;;;13.62;27.77
27425;BME280;15244;49.088;11.886;2023-04-06T12:52:03;95896.50;;;13.62;27.04
27425;BME280;15244;49.088;11.886;2023-04-06T12:57:32;95903.16;;;13.61;27.21
27425;BME280;15244;49.088;11.886;2023-04-06T13:02:47;95891.00;;;13.66;26.72
27425;BME280;15244;49.088;11.886;2023-04-06T13:08:09;95896.81;;;13.79;27.60
27425;BME280;15244;49.088;11.886;2023-04-06T13:13:31;95888.13;;;13.91;27.37
27425;BME280;15244;49.088;11.886;2023-04-06T13:18:46;95889.19;;;14.08;27.26
27425;BME280;15244;49.088;11.886;2023-04-06T13:24:15;95881.19;;;14.28;27.21
27425;BME280;15244;49.088;11.886;2023-04-06T13:29:30;95879.97;;;14.36;27.00
27425;BME280;15244;49.088;11.886;2023-04-06T13:34:59;95873.41;;;14.23;26.61
27425;BME280;15244;49.088;11.886;2023-04-06T13:40:15;95876.56;;;14.21;26.37
27425;BME280;15244;49.088;11.886;2023-04-06T13:45:51;95875.84;;;14.14;26.05
27425;BME280;15244;49.088;11.886;2023-04-06T13:51:16;95864.44;;;14.15;26.19
27425;BME280;15244;49.088;11.886;2023-04-06T13:56:45;95864.03;;;14.20;25.46
27425;BME280;15244;49.088;11.886;2023-04-06T14:02:00;95853.69;;;14.39;26.11
27425;BME280;15244;49.088;11.886;2023-04-06T14:07:29;95852.00;;;14.56;25.98
27425;BME280;15244;49.088;11.886;2023-04-06T14:12:44;95845.91;;;14.79;26.00
27425;BME280;15244;49.088;11.886;2023-04-06T14:18:14;95845.34;;;14.94;25.60
27425;BME280;15244;49.088;11.886;2023-04-06T14:23:29;95838.84;;;15.15;25.62
27425;BME280;15244;49.088;11.886;2023-04-06T14:28:59;95830.34;;;15.37;25.84
27425;BME280;15244;49.088;11.886;2023-04-06T14:34:15;95835.63;;;15.51;25.14
27425;BME280;15244;49.088;11.886;2023-04-06T14:39:44;95833.25;;;15.53;25.08
27425;BME280;15244;49.088;11.886;2023-04-06T14:44:59;95833.47;;;15.66;25.05
27425;BME280;15244;49.088;11.886;2023-04-06T14:50:28;95824.03;;;15.71;24.82
27425;BME280;15244;49.088;11.886;2023-04-06T14:55:43;95827.50;;;15.75;24.88
27425;BME280;15244;49.088;11.886;2023-04-06T15:01:13;95820.88;;;15.72;24.73
27425;BME280;15244;49.088;11.886;2023-04-06T15:06:43;95830.94;;;15.82;24.86
27425;BME280;15244;49.088;11.886;2023-04-06T15:12:12;95811.72;;;15.79;24.04
27425;BME280;15244;49.088;11.886;2023-04-06T15:17:27;95813.59;;;15.86;24.19
27425;BME280;15244;49.088;11.886;2023-04-06T15:22:56;95811.88;;;15.95;24.23
27425;BME280;15244;49.088;11.886;2023-04-06T15:28:11;95818.53;;;15.98;23.95
27425;BME280;15244;49.088;11.886;2023-04-06T15:33:33;95804.78;;;15.98;23.80
27425;BME280;15244;49.088;11.886;2023-04-06T15:38:58;95812.97;;;16.01;23.72
27425;BME280;15244;49.088;11.886;2023-04-06T15:44:13;95820.38;;;16.04;22.75
27425;BME280;15244;49.088;11.886;2023-04-06T15:49:42;95816.75;;;16.11;22.86
27425;BME280;15244;49.088;11.886;2023-04-06T15:54:57;95819.31;;;16.22;23.14
27425;BME280;15244;49.088;11.886;2023-04-06T16:00:26;95810.28;;;16.21;22.70
27425;BME280;15244;49.088;11.886;2023-04-06T16:05:42;95804.69;;;16.29;23.18
27425;BME280;15244;49.088;11.886;2023-04-06T16:11:22;95813.16;;;16.38;23.19
27425;BME280;15244;49.088;11.886;2023-04-06T16:16:37;95805.63;;;16.42;23.19
27425;BME280;15244;49.088;11.886;2023-04-06T16:22:06;95811.84;;;16.46;22.99
27425;BME280;15244;49.088;11.886;2023-04-06T16:27:21;95816.16;;;16.47;22.78
27425;BME280;15244;49.088;11.886;2023-04-06T16:32:50;95812.06;;;16.55;22.80
27425;BME280;15244;49.088;11.886;2023-04-06T16:38:05;95809.19;;;16.62;22.73
27425;BME280;15244;49.088;11.886;2023-04-06T16:43:34;95810.41;;;16.61;22.10
27425;BME280;15244;49.088;11.886;2023-04-06T16:48:49;95808.19;;;16.53;21.97
27425;BME280;15244;49.088;11.886;2023-04-06T16:54:18;95818.91;;;16.47;22.14
27425;BME280;15244;49.088;11.886;2023-04-06T16:59:33;95810.41;;;16.38;22.00
27425;BME280;15244;49.088;11.886;2023-04-06T17:05:02;95811.31;;;16.31;22.15
27425;BME280;15244;49.088;11.886;2023-04-06T17:10:31;95813.34;;;16.27;22.37
27425;BME280;15244;49.088;11.886;2023-04-06T17:16:06;95814.59;;;16.22;22.42
27425;BME280;15244;49.088;11.886;2023-04-06T17:21:35;95814.34;;;16.13;22.51
27425;BME280;15244;49.088;11.886;2023-04-06T17:26:50;95808.72;;;15.97;22.93
27425;BME280;15244;49.088;11.886;2023-04-06T17:32:19;95820.41;;;15.77;23.66
27425;BME280;15244;49.088;11.886;2023-04-06T17:37:35;95823.09;;;15.50;24.02
27425;BME280;15244;49.088;11.886;2023-04-06T17:43:06;95828.69;;;15.12;24.25
27425;BME280;15244;49.088;11.886;2023-04-06T17:48:21;95826.34;;;14.77;24.15
27425;BME280;15244;49.088;11.886;2023-04-06T17:53:50;95834.06;;;14.44;24.19
27425;BME280;15244;49.088;11.886;2023-04-06T17:59:05;95836.25;;;14.18;24.30
27425;BME280;15244;49.088;11.886;2023-04-06T18:04:35;95840.75;;;13.91;24.75
27425;BME280;15244;49.088;11.886;2023-04-06T18:10:05;95848.75;;;13.63;25.41
27425;BME280;15244;49.088;11.886;2023-04-06T18:15:21;95851.19;;;13.43;25.92
27425;BME280;15244;49.088;11.886;2023-04-06T18:20:50;95848.91;;;13.24;25.87
27425;BME280;15244;49.088;11.886;2023-04-06T18:26:05;95855.25;;;13.07;26.15
27425;BME280;15244;49.088;11.886;2023-04-06T18:31:34;95860.78;;;12.89;25.95
27425;BME280;15244;49.088;11.886;2023-04-06T18:36:49;95856.09;;;12.75;25.47
27425;BME280;15244;49.088;11.886;2023-04-06T18:42:18;95857.31;;;12.60;26.27
27425;BME280;15244;49.088;11.886;2023-04-06T18:47:33;95860.44;;;12.51;26.30
27425;BME280;15244;49.088;11.886;2023-04-06T18:53:02;95865.53;;;12.42;26.06
27425;BME280;15244;49.088;11.886;2023-04-06T18:58:17;95863.97;;;12.23;26.30
27425;BME280;15244;49.088;11.886;2023-04-06T19:03:46;95874.91;;;12.01;26.33
27425;BME280;15244;49.088;11.886;2023-04-06T19:09:01;95877.97;;;11.85;26.37
27425;BME280;15244;49.088;11.886;2023-04-06T19:14:30;95875.19;;;11.75;26.88
27425;BME280;15244;49.088;11.886;2023-04-06T19:19:46;95882.22;;;11.68;27.06
27425;BME280;15244;49.088;11.886;2023-04-06T19:25:16;95881.81;;;11.63;26.93
27425;BME280;15244;49.088;11.886;2023-04-06T19:30:32;95880.63;;;11.53;27.60
27425;BME280;15244;49.088;11.886;2023-04-06T19:36:02;95887.19;;;11.41;27.67
27425;BME280;15244;49.088;11.886;2023-04-06T19:41:18;95873.53;;;11.31;27.57
27425;BME280;15244;49.088;11.886;2023-04-06T19:46:48;95876.63;;;11.22;27.72
27425;BME280;15244;49.088;11.886;2023-04-06T19:52:04;95883.59;;;11.16;27.76
27425;BME280;15244;49.088;11.886;2023-04-06T19:57:34;95880.81;;;11.09;27.84
27425;BME280;15244;49.088;11.886;2023-04-06T20:02:49;95881.19;;;11.03;28.34
27425;BME280;15244;49.088;11.886;2023-04-06T20:08:18;95879.66;;;11.02;27.95
27425;BME280;15244;49.088;11.886;2023-04-06T20:13:33;95877.28;;;11.01;28.10
27425;BME280;15244;49.088;11.886;2023-04-06T20:19:02;95880.78;;;10.98;27.67
27425;BME280;15244;49.088;11.886;2023-04-06T20:24:17;95875.31;;;10.94;27.64
27425;BME280;15244;49.088;11.886;2023-04-06T20:29:45;95879.19;;;10.90;28.02
27425;BME280;15244;49.088;11.886;2023-04-06T20:35:01;95868.22;;;10.82;28.38
27425;BME280;15244;49.088;11.886;2023-04-06T20:40:30;95876.00;;;10.77;28.33
27425;BME280;15244;49.088;11.886;2023-04-06T20:45:45;95873.59;;;10.68;28.63
27425;BME280;15244;49.088;11.886;2023-04-06T20:51:18;95866.94;;;10.58;28.71
27425;BME280;15244;49.088;11.886;2023-04-06T20:56:34;95868.00;;;10.47;28.96
27425;BME280;15244;49.088;11.886;2023-04-06T21:02:03;95855.50;;;10.38;29.21
27425;BME280;15244;49.088;11.886;2023-04-06T21:07:18;95861.69;;;10.32;29.57
27425;BME280;15244;49.088;11.886;2023-04-06T21:12:46;95866.25;;;10.24;29.44
27425;BME280;15244;49.088;11.886;2023-04-06T21:18:02;95859.19;;;10.16;29.59
27425;BME280;15244;49.088;11.886;2023-04-06T21:23:31;95868.84;;;10.06;29.63
27425;BME280;15244;49.088;11.886;2023-04-06T21:28:46;95866.47;;;10.01;29.95
27425;BME280;15244;49.088;11.886;2023-04-06T21:34:15;95862.91;;;9.93;29.86
27425;BME280;15244;49.088;11.886;2023-04-06T21:39:30;95858.56;;;9.89;29.67
27425;BME280;15244;49.088;11.886;2023-04-06T21:44:59;95858.94;;;9.87;29.73
27425;BME280;15244;49.088;11.886;2023-04-06T21:50:14;95851.50;;;9.81;29.70
27425;BME280;15244;49.088;11.886;2023-04-06T21:55:46;95847.19;;;9.76;29.89
27425;BME280;15244;49.088;11.886;2023-04-06T22:01:02;95849.06;;;9.72;29.81
27425;BME280;15244;49.088;11.886;2023-04-06T22:06:30;95850.22;;;9.67;29.84
27425;BME280;15244;49.088;11.886;2023-04-06T22:11:46;95843.53;;;9.61;30.01
27425;BME280;15244;49.088;11.886;2023-04-06T22:17:15;95835.72;;;9.56;29.95
27425;BME280;15244;49.088;11.886;2023-04-06T22:22:30;95841.50;;;9.51;30.34
27425;BME280;15244;49.088;11.886;2023-04-06T22:27:58;95839.88;;;9.46;30.14
27425;BME280;15244;49.088;11.886;2023-04-06T22:33:14;95840.59;;;9.40;29.97
27425;BME280;15244;49.088;11.886;2023-04-06T22:38:42;95833.56;;;9.35;30.29
27425;BME280;15244;49.088;11.886;2023-04-06T22:43:58;95836.97;;;9.28;30.35
27425;BME280;15244;49.088;11.886;2023-04-06T22:49:26;95840.41;;;9.22;30.21
27425;BME280;15244;49.088;11.886;2023-04-06T22:54:42;95832.19;;;9.18;30.50
27425;BME280;15244;49.088;11.886;2023-04-06T23:00:11;95841.06;;;9.11;30.39
27425;BME280;15244;49.088;11.886;2023-04-06T23:05:33;95834.03;;;9.07;30.60
27425;BME280;15244;49.088;11.886;2023-04-06T23:11:02;95835.13;;;9.02;30.61
27425;BME280;15244;49.088;11.886;2023-04-06T23:16:18;95837.78;;;8.99;30.68
27425;BME280;15244;49.088;11.886;2023-04-06T23:21:46;95829.97;;;8.94;31.00
27425;BME280;15244;49.088;11.886;2023-04-06T23:27:02;95836.53;;;8.89;31.09
27425;BME280;15244;49.088;11.886;2023-04-06T23:32:30;95824.41;;;8.83;31.28
27425;BME280;15244;49.088;11.886;2023-04-06T23:37:46;95831.69;;;8.75;31.64
27425;BME280;15244;49.088;11.886;2023-04-06T23:43:14;95827.34;;;8.71;31.47
27425;BME280;15244;49.088;11.886;2023-04-06T23:48:30;95819.50;;;8.65;31.59
27425;BME280;15244;49.088;11.886;2023-04-06T23:53:59;95808.97;;;8.60;31.45
27425;BME280;15244;49.088;11.886;2023-04-06T23:59:15;95818.22;;;8.56;31.78
